Time;durP1;ratioP1;P1;durP2;ratioP2;P2;SDS_P1;SDS_P2;PMS_P1;PMS_P2;Temp;Humidity;BMP_temperature;BMP_pressure;BME280_temperature;BME280_humidity;BME280_pressure;Samples;Min_cycle;Max_cycle;Signal;HPM_P1;HPM_P2
2021/07/10 00:00:44;;;;;;;13.48;11.40;;;;;;;;;;5034604;28;20045;-79
2021/07/10 00:03:11;;;;;;;12.90;10.57;;;;;;;;;;5045605;28;20072;-79
2021/07/10 00:05:37;;;;;;;13.23;11.85;;;;;;;;;;5045815;28;20056;-79
2021/07/10 00:08:05;;;;;;;12.45;10.52;;;;;;;;;;5045455;28;20053;-79
2021/07/10 00:10:33;;;;;;;13.50;12.07;;;;;;;;;;5045809;28;20046;-80
2021/07/10 00:13:00;;;;;;;13.52;11.88;;;;;;;;;;5039924;28;20045;-80
2021/07/10 00:15:27;;;;;;;14.20;11.90;;;;;;;;;;5037653;28;20077;-82
2021/07/10 00:17:54;;;;;;;14.20;11.57;;;;;;;;;;5040594;28;20046;-79
2021/07/10 00:20:22;;;;;;;14.07;11.98;;;;;;;;;;5044186;28;20052;-79
2021/07/10 00:22:49;;;;;;;12.65;11.38;;;;;;;;;;5042499;28;20080;-79
2021/07/10 00:25:18;;;;;;;12.30;10.60;;;;;;;;;;5040313;28;20045;-78
2021/07/10 00:27:48;;;;;;;11.80;10.45;;;;;;;;;;5041714;28;20128;-79
2021/07/10 00:30:17;;;;;;;11.00;9.88;;;;;;;;;;5041312;28;20087;-79
2021/07/10 00:32:44;;;;;;;11.52;9.40;;;;;;;;;;5041617;28;20041;-79
2021/07/10 00:35:11;;;;;;;11.05;9.85;;;;;;;;;;5041583;28;20426;-79
2021/07/10 00:37:38;;;;;;;10.60;9.48;;;;;;;;;;5042083;28;20049;-78
2021/07/10 00:40:06;;;;;;;11.82;9.07;;;;;;;;;;5041788;28;20042;-79
2021/07/10 00:42:33;;;;;;;10.57;9.48;;;;;;;;;;5043331;28;20056;-79
2021/07/10 00:45:01;;;;;;;10.73;9.63;;;;;;;;;;5042128;28;20041;-79
2021/07/10 00:47:28;;;;;;;10.57;9.48;;;;;;;;;;5043519;28;20054;-79
2021/07/10 00:49:55;;;;;;;10.80;9.63;;;;;;;;;;5046166;28;20046;-79
2021/07/10 00:52:22;;;;;;;12.93;9.88;;;;;;;;;;5047870;28;20076;-78
2021/07/10 00:54:49;;;;;;;12.07;9.65;;;;;;;;;;5042869;28;20053;-79
2021/07/10 00:57:16;;;;;;;10.30;8.95;;;;;;;;;;5043204;28;20046;-79
2021/07/10 00:59:44;;;;;;;10.50;9.27;;;;;;;;;;5043822;28;20542;-79
2021/07/10 01:02:13;;;;;;;9.93;8.40;;;;;;;;;;5023893;28;20052;-79
2021/07/10 01:04:40;;;;;;;11.00;9.48;;;;;;;;;;5021740;28;20073;-79
2021/07/10 01:07:06;;;;;;;11.10;9.73;;;;;;;;;;5023266;28;20740;-78
2021/07/10 01:09:36;;;;;;;11.65;9.70;;;;;;;;;;5022238;28;20050;-80
2021/07/10 01:12:03;;;;;;;11.30;10.13;;;;;;;;;;5025829;28;20104;-79
2021/07/10 01:14:30;;;;;;;12.43;10.70;;;;;;;;;;5025241;28;20404;-78
2021/07/10 01:16:57;;;;;;;12.30;10.85;;;;;;;;;;5023304;28;20050;-78
2021/07/10 01:19:30;;;;;;;16.45;13.63;;;;;;;;;;5025930;28;20511;-78
2021/07/10 01:21:59;;;;;;;12.90;11.00;;;;;;;;;;5026430;28;20100;-79
2021/07/10 01:24:27;;;;;;;13.38;10.63;;;;;;;;;;5022705;28;20530;-79
2021/07/10 01:26:54;;;;;;;12.85;10.02;;;;;;;;;;5015041;28;20065;-78
2021/07/10 01:29:21;;;;;;;10.27;8.77;;;;;;;;;;5015344;28;20487;-79
2021/07/10 01:31:49;;;;;;;10.32;9.18;;;;;;;;;;5015586;28;20100;-79
2021/07/10 01:34:16;;;;;;;9.48;8.55;;;;;;;;;;5015057;28;20050;-79
2021/07/10 01:36:44;;;;;;;10.50;8.63;;;;;;;;;;5014848;28;20092;-78
2021/07/10 01:39:13;;;;;;;10.80;8.75;;;;;;;;;;5014736;28;20089;-79
2021/07/10 01:41:44;;;;;;;9.45;7.95;;;;;;;;;;5018450;28;20452;-79
2021/07/10 01:44:11;;;;;;;9.30;8.18;;;;;;;;;;5027623;28;20072;-79
2021/07/10 01:46:38;;;;;;;11.25;8.38;;;;;;;;;;5027930;28;20045;-79
2021/07/10 01:49:05;;;;;;;9.57;8.52;;;;;;;;;;5020696;28;20050;-80
2021/07/10 01:51:31;;;;;;;10.38;9.10;;;;;;;;;;5017119;28;20088;-79
2021/07/10 01:53:58;;;;;;;9.75;8.63;;;;;;;;;;5016565;28;20085;-79
2021/07/10 01:56:26;;;;;;;9.65;8.20;;;;;;;;;;5016258;28;20073;-79
2021/07/10 01:58:54;;;;;;;9.07;8.05;;;;;;;;;;5017827;28;20069;-79
2021/07/10 02:01:25;;;;;;;9.88;8.32;;;;;;;;;;5018057;28;20526;-79
2021/07/10 02:03:52;;;;;;;9.70;8.25;;;;;;;;;;5018375;28;20049;-79
2021/07/10 02:06:19;;;;;;;10.27;8.90;;;;;;;;;;5018823;28;20069;-79
2021/07/10 02:08:46;;;;;;;8.88;7.80;;;;;;;;;;5020011;28;20049;-79
2021/07/10 02:11:15;;;;;;;9.20;8.23;;;;;;;;;;5018749;28;20046;-79
2021/07/10 02:13:43;;;;;;;9.32;7.40;;;;;;;;;;5019527;28;20478;-79
2021/07/10 02:16:10;;;;;;;11.38;8.10;;;;;;;;;;5019081;28;20081;-79
2021/07/10 02:18:38;;;;;;;9.43;7.55;;;;;;;;;;5019567;28;20046;-79
2021/07/10 02:21:05;;;;;;;8.93;7.80;;;;;;;;;;5018951;28;20046;-78
2021/07/10 02:23:31;;;;;;;9.55;8.15;;;;;;;;;;5018886;28;20462;-79
2021/07/10 02:25:58;;;;;;;9.82;7.32;;;;;;;;;;5020963;28;20050;-78
2021/07/10 02:28:25;;;;;;;8.75;7.00;;;;;;;;;;5018970;28;20045;-79
2021/07/10 02:30:53;;;;;;;9.55;7.60;;;;;;;;;;5018583;28;20046;-79
2021/07/10 02:33:20;;;;;;;8.25;6.97;;;;;;;;;;5018081;28;20081;-79
2021/07/10 02:35:46;;;;;;;8.02;6.97;;;;;;;;;;5041951;23;20069;-76
2021/07/10 02:38:14;;;;;;;9.38;6.97;;;;;;;;;;5033477;28;20088;-76
2021/07/10 02:40:41;;;;;;;8.32;7.05;;;;;;;;;;5033678;28;20053;-76
2021/07/10 02:43:07;;;;;;;8.32;6.80;;;;;;;;;;5033765;28;20053;-75
2021/07/10 02:45:35;;;;;;;9.68;7.15;;;;;;;;;;5032959;28;20096;-76
2021/07/10 02:48:04;;;;;;;7.38;6.47;;;;;;;;;;5033298;28;20046;-76
2021/07/10 02:50:31;;;;;;;7.82;6.60;;;;;;;;;;5033657;28;20041;-76
2021/07/10 02:53:01;;;;;;;7.97;6.32;;;;;;;;;;5033771;28;20080;-76
2021/07/10 02:55:29;;;;;;;8.25;6.18;;;;;;;;;;5032815;28;20164;-76
2021/07/10 02:57:55;;;;;;;7.50;6.63;;;;;;;;;;5033824;28;20057;-75
2021/07/10 03:00:26;;;;;;;7.10;6.00;;;;;;;;;;5033154;28;20069;-76
2021/07/10 03:02:53;;;;;;;8.02;6.32;;;;;;;;;;5034504;28;20076;-76
2021/07/10 03:05:21;;;;;;;9.32;6.75;;;;;;;;;;5033292;28;20041;-76
2021/07/10 03:07:48;;;;;;;7.90;6.18;;;;;;;;;;5034011;28;20464;-76
2021/07/10 03:10:17;;;;;;;8.45;5.68;;;;;;;;;;5033563;28;20148;-75
2021/07/10 03:12:43;;;;;;;7.53;5.60;;;;;;;;;;5030819;28;20042;-75
2021/07/10 03:15:13;;;;;;;7.28;6.05;;;;;;;;;;5027545;28;20052;-75
2021/07/10 03:17:40;;;;;;;8.35;6.07;;;;;;;;;;5030033;28;20050;-76
2021/07/10 03:20:08;;;;;;;7.47;6.00;;;;;;;;;;5029630;28;20050;-76
2021/07/10 03:22:37;;;;;;;7.85;5.28;;;;;;;;;;5014940;28;20046;-76
2021/07/10 03:25:05;;;;;;;9.13;5.82;;;;;;;;;;5012230;28;20078;-76
2021/07/10 03:27:33;;;;;;;8.85;5.88;;;;;;;;;;5013047;28;20458;-76
2021/07/10 03:30:00;;;;;;;10.90;5.80;;;;;;;;;;5013070;28;20046;-76
2021/07/10 03:32:27;;;;;;;9.07;5.78;;;;;;;;;;5013003;28;20054;-76
2021/07/10 03:34:54;;;;;;;7.50;5.47;;;;;;;;;;5011978;28;20077;-76
2021/07/10 03:37:21;;;;;;;6.75;5.50;;;;;;;;;;5012958;28;20609;-75
2021/07/10 03:39:49;;;;;;;7.53;5.82;;;;;;;;;;5012693;28;20077;-76
2021/07/10 03:42:16;;;;;;;7.40;5.78;;;;;;;;;;5012725;28;20077;-76
2021/07/10 03:44:42;;;;;;;7.20;5.57;;;;;;;;;;5011987;28;20050;-76
2021/07/10 03:47:09;;;;;;;7.97;5.15;;;;;;;;;;5012638;28;20054;-76
2021/07/10 03:49:36;;;;;;;7.25;5.72;;;;;;;;;;5012912;28;20053;-76
2021/07/10 03:52:03;;;;;;;7.68;6.00;;;;;;;;;;5012948;28;20463;-75
2021/07/10 03:54:30;;;;;;;6.38;5.13;;;;;;;;;;5012311;28;20502;-75
2021/07/10 03:56:58;;;;;;;7.15;5.20;;;;;;;;;;5012063;28;20049;-75
2021/07/10 03:59:25;;;;;;;6.50;5.30;;;;;;;;;;5012598;28;20131;-76
2021/07/10 04:01:52;;;;;;;10.60;4.90;;;;;;;;;;5029136;28;20041;-75
2021/07/10 04:04:19;;;;;;;7.20;5.65;;;;;;;;;;5032045;28;20045;-75
2021/07/10 04:06:45;;;;;;;8.00;5.32;;;;;;;;;;5031637;28;20076;-78
2021/07/10 04:09:12;;;;;;;7.50;5.35;;;;;;;;;;5032023;28;20128;-75
2021/07/10 04:11:39;;;;;;;6.50;5.13;;;;;;;;;;5024949;28;20081;-76
2021/07/10 04:14:07;;;;;;;6.28;5.18;;;;;;;;;;5012366;28;20097;-75
2021/07/10 04:16:34;;;;;;;6.03;5.10;;;;;;;;;;5011710;28;20042;-75
2021/07/10 04:19:00;;;;;;;5.55;4.80;;;;;;;;;;5012367;28;20081;-76
2021/07/10 04:21:27;;;;;;;5.88;5.18;;;;;;;;;;5012473;28;20042;-76
2021/07/10 04:23:54;;;;;;;8.13;5.20;;;;;;;;;;5012108;28;20140;-76
2021/07/10 04:26:21;;;;;;;7.05;5.13;;;;;;;;;;5011665;28;20042;-76
2021/07/10 04:28:48;;;;;;;7.60;5.03;;;;;;;;;;5012340;28;20081;-75
2021/07/10 04:31:16;;;;;;;8.13;6.00;;;;;;;;;;5012218;28;20088;-75
2021/07/10 04:33:42;;;;;;;6.13;5.00;;;;;;;;;;5012200;28;20085;-75
2021/07/10 04:36:09;;;;;;;6.40;5.05;;;;;;;;;;5011480;28;20077;-75
2021/07/10 04:38:37;;;;;;;6.65;5.07;;;;;;;;;;5012330;28;20093;-74
2021/07/10 04:41:04;;;;;;;6.07;5.20;;;;;;;;;;5012157;28;20046;-76
2021/07/10 04:43:31;;;;;;;7.57;5.60;;;;;;;;;;5012249;28;20050;-75
2021/07/10 04:45:58;;;;;;;9.40;5.80;;;;;;;;;;5014321;28;20050;-76
2021/07/10 04:48:26;;;;;;;7.20;5.95;;;;;;;;;;5016490;28;20081;-75
2021/07/10 04:50:53;;;;;;;8.38;6.43;;;;;;;;;;5015773;28;20050;-76
2021/07/10 04:53:20;;;;;;;7.97;6.13;;;;;;;;;;5015935;28;20136;-76
2021/07/10 04:55:49;;;;;;;8.68;6.43;;;;;;;;;;5014943;28;20507;-76
2021/07/10 04:58:15;;;;;;;8.20;6.68;;;;;;;;;;5015810;28;20050;-76
2021/07/10 05:00:42;;;;;;;6.93;6.10;;;;;;;;;;5022731;28;20100;-76
2021/07/10 05:03:10;;;;;;;8.07;6.32;;;;;;;;;;5035501;28;20081;-76
2021/07/10 05:05:39;;;;;;;8.93;5.80;;;;;;;;;;5034642;28;20053;-76
2021/07/10 05:08:06;;;;;;;7.22;5.50;;;;;;;;;;5035640;28;20042;-76
2021/07/10 05:10:34;;;;;;;8.48;5.63;;;;;;;;;;5035678;28;20080;-76
2021/07/10 05:13:00;;;;;;;6.88;5.75;;;;;;;;;;5017117;28;20147;-76
2021/07/10 05:15:27;;;;;;;6.60;5.70;;;;;;;;;;5014496;28;20078;-76
2021/07/10 05:17:54;;;;;;;7.32;5.55;;;;;;;;;;5015630;28;20078;-76
2021/07/10 05:20:20;;;;;;;7.05;5.28;;;;;;;;;;5015906;28;20045;-76
2021/07/10 05:22:49;;;;;;;5.95;5.35;;;;;;;;;;5016028;28;20081;-76
2021/07/10 05:25:16;;;;;;;6.72;5.13;;;;;;;;;;5014757;28;20103;-76
2021/07/10 05:27:43;;;;;;;7.55;5.80;;;;;;;;;;5015201;28;20081;-76
2021/07/10 05:30:13;;;;;;;6.65;5.78;;;;;;;;;;5014798;28;20077;-76
2021/07/10 05:32:39;;;;;;;7.57;5.47;;;;;;;;;;5014896;28;20089;-76
2021/07/10 05:35:08;;;;;;;6.50;5.20;;;;;;;;;;5014189;28;20085;-76
2021/07/10 05:37:35;;;;;;;6.40;4.75;;;;;;;;;;5014959;28;20100;-76
2021/07/10 05:40:05;;;;;;;7.15;5.80;;;;;;;;;;5015010;28;20081;-75
2021/07/10 05:42:32;;;;;;;7.55;5.90;;;;;;;;;;5015067;28;20081;-76
2021/07/10 05:44:59;;;;;;;10.52;8.60;;;;;;;;;;5013927;28;20462;-76
2021/07/10 05:47:25;;;;;;;8.23;6.30;;;;;;;;;;5015281;28;20045;-76
2021/07/10 05:49:52;;;;;;;8.45;6.88;;;;;;;;;;5014631;28;20088;-76
2021/07/10 05:52:19;;;;;;;9.18;6.22;;;;;;;;;;5014877;28;20081;-76
2021/07/10 05:54:45;;;;;;;8.40;6.32;;;;;;;;;;5013760;28;20512;-76
2021/07/10 05:57:13;;;;;;;8.63;7.38;;;;;;;;;;5014622;28;20085;-76
2021/07/10 05:59:40;;;;;;;9.48;7.43;;;;;;;;;;5014407;28;20046;-76
2021/07/10 06:02:07;;;;;;;8.25;7.22;;;;;;;;;;5033067;28;20042;-76
2021/07/10 06:04:34;;;;;;;8.90;7.30;;;;;;;;;;5034074;28;20045;-76
2021/07/10 06:07:00;;;;;;;10.25;6.78;;;;;;;;;;5033964;28;20096;-76
2021/07/10 06:09:27;;;;;;;9.88;7.70;;;;;;;;;;5034307;28;20088;-76
2021/07/10 06:11:54;;;;;;;9.60;7.57;;;;;;;;;;5025157;28;20088;-76
2021/07/10 06:14:22;;;;;;;11.52;8.77;;;;;;;;;;5014436;28;20065;-76
2021/07/10 06:16:49;;;;;;;11.40;8.35;;;;;;;;;;5013847;28;20042;-76
2021/07/10 06:19:15;;;;;;;12.10;10.80;;;;;;;;;;5014552;28;20077;-76
2021/07/10 06:21:42;;;;;;;14.25;12.27;;;;;;;;;;5014240;28;20085;-76
2021/07/10 06:24:09;;;;;;;10.25;9.15;;;;;;;;;;5014196;28;20136;-76
2021/07/10 06:26:36;;;;;;;9.82;7.93;;;;;;;;;;5013316;28;20454;-76
2021/07/10 06:29:05;;;;;;;10.18;8.02;;;;;;;;;;5013982;28;20092;-76
2021/07/10 06:31:33;;;;;;;14.23;11.95;;;;;;;;;;5013625;28;20096;-76
2021/07/10 06:34:00;;;;;;;12.77;9.70;;;;;;;;;;5013789;28;20081;-76
2021/07/10 06:36:27;;;;;;;11.02;7.88;;;;;;;;;;5013446;28;20046;-74
2021/07/10 06:38:54;;;;;;;11.05;8.32;;;;;;;;;;5013786;28;20499;-75
2021/07/10 06:41:21;;;;;;;11.77;9.43;;;;;;;;;;5013628;28;20085;-75
2021/07/10 06:43:47;;;;;;;12.85;10.13;;;;;;;;;;5013678;28;20494;-75
2021/07/10 06:46:14;;;;;;;14.70;9.02;;;;;;;;;;5012632;28;20085;-75
2021/07/10 06:48:42;;;;;;;9.05;8.00;;;;;;;;;;5013796;28;20589;-75
2021/07/10 06:51:09;;;;;;;9.98;8.38;;;;;;;;;;5013345;28;20081;-75
2021/07/10 06:53:36;;;;;;;11.20;8.57;;;;;;;;;;5013876;28;20089;-76
2021/07/10 06:56:03;;;;;;;13.38;10.57;;;;;;;;;;5012770;28;20050;-76
2021/07/10 06:58:29;;;;;;;11.63;9.52;;;;;;;;;;5013930;28;20049;-77
2021/07/10 07:00:56;;;;;;;10.02;8.20;;;;;;;;;;5022185;28;20080;-77
2021/07/10 07:03:23;;;;;;;9.80;8.60;;;;;;;;;;5033136;28;20088;-77
2021/07/10 07:05:51;;;;;;;8.52;7.22;;;;;;;;;;5032437;28;20041;-77
2021/07/10 07:08:18;;;;;;;8.80;7.88;;;;;;;;;;5032403;28;20076;-77
2021/07/10 07:10:44;;;;;;;8.38;7.30;;;;;;;;;;5033320;28;20080;-77
2021/07/10 07:13:11;;;;;;;9.88;7.97;;;;;;;;;;5013674;28;20124;-78
2021/07/10 07:15:38;;;;;;;9.57;8.35;;;;;;;;;;5012740;28;20049;-77
2021/07/10 07:18:05;;;;;;;8.73;7.22;;;;;;;;;;5013131;28;20101;-76
2021/07/10 07:20:32;;;;;;;8.57;7.20;;;;;;;;;;5029381;28;20057;-76
2021/07/10 07:23:01;;;;;;;19.02;11.95;;;;;;;;;;5032543;28;20091;-76
2021/07/10 07:25:28;;;;;;;12.27;7.90;;;;;;;;;;5031928;28;20400;-76
2021/07/10 07:27:54;;;;;;;10.63;6.95;;;;;;;;;;5033220;28;20085;-77
2021/07/10 07:30:22;;;;;;;10.82;7.72;;;;;;;;;;5033250;28;20544;-76
2021/07/10 07:32:49;;;;;;;10.55;7.35;;;;;;;;;;5033081;28;20080;-77
2021/07/10 07:35:16;;;;;;;12.35;10.02;;;;;;;;;;5032075;28;20089;-77
2021/07/10 07:37:44;;;;;;;10.65;8.60;;;;;;;;;;5033727;28;20041;-77
2021/07/10 07:40:15;;;;;;;9.63;8.43;;;;;;;;;;5033562;28;20045;-77
2021/07/10 07:42:42;;;;;;;10.85;8.15;;;;;;;;;;5033291;28;20088;-77
2021/07/10 07:45:10;;;;;;;10.60;8.35;;;;;;;;;;5032275;28;20095;-76
2021/07/10 07:47:37;;;;;;;9.70;7.75;;;;;;;;;;5033166;28;20076;-76
2021/07/10 07:50:06;;;;;;;9.40;8.30;;;;;;;;;;5032411;28;20076;-76
2021/07/10 07:52:36;;;;;;;10.02;7.93;;;;;;;;;;5034460;28;20073;-77
2021/07/10 07:55:04;;;;;;;9.20;7.80;;;;;;;;;;5036516;28;20050;-77
2021/07/10 07:57:33;;;;;;;10.27;8.95;;;;;;;;;;5045508;28;20057;-76
2021/07/10 08:00:00;;;;;;;10.77;9.15;;;;;;;;;;5045111;28;20051;-76
2021/07/10 08:02:26;;;;;;;11.82;9.95;;;;;;;;;;5025063;28;20061;-76
2021/07/10 08:04:53;;;;;;;9.45;8.07;;;;;;;;;;5023893;28;20046;-76
2021/07/10 08:07:20;;;;;;;9.05;8.13;;;;;;;;;;5016702;28;20057;-76
2021/07/10 08:09:46;;;;;;;12.20;8.60;;;;;;;;;;5013017;28;20077;-77
2021/07/10 08:12:13;;;;;;;9.57;7.53;;;;;;;;;;5024141;28;20077;-77
2021/07/10 08:14:42;;;;;;;9.85;8.23;;;;;;;;;;5025634;28;20198;-76
2021/07/10 08:17:09;;;;;;;8.90;7.80;;;;;;;;;;5016373;28;20050;-76
2021/07/10 08:19:35;;;;;;;9.13;7.90;;;;;;;;;;5013022;28;20181;-76
2021/07/10 08:22:02;;;;;;;10.13;8.00;;;;;;;;;;5016223;28;20474;-76
2021/07/10 08:24:29;;;;;;;8.85;7.95;;;;;;;;;;5016491;28;20085;-77
2021/07/10 08:26:56;;;;;;;9.95;7.57;;;;;;;;;;5017842;28;20054;-77
2021/07/10 08:29:23;;;;;;;8.80;7.70;;;;;;;;;;5019200;28;20058;-78
2021/07/10 08:31:51;;;;;;;9.70;8.27;;;;;;;;;;5016812;28;20061;-76
2021/07/10 08:34:18;;;;;;;8.23;6.97;;;;;;;;;;5016302;28;20050;-76
2021/07/10 08:36:44;;;;;;;8.98;7.43;;;;;;;;;;5049976;23;20069;-79
2021/07/10 08:39:11;;;;;;;8.00;7.13;;;;;;;;;;5041492;28;20046;-80
2021/07/10 08:41:38;;;;;;;8.20;7.03;;;;;;;;;;5040844;28;20053;-79
2021/07/10 08:44:06;;;;;;;8.93;7.68;;;;;;;;;;5040279;28;20045;-79
2021/07/10 08:46:33;;;;;;;8.43;7.03;;;;;;;;;;5040685;28;20125;-78
2021/07/10 08:49:01;;;;;;;8.32;6.97;;;;;;;;;;5047864;28;20060;-79
2021/07/10 08:51:28;;;;;;;11.48;7.82;;;;;;;;;;5052675;28;20496;-79
2021/07/10 08:53:55;;;;;;;10.85;8.15;;;;;;;;;;5040177;28;20494;-84
2021/07/10 08:56:22;;;;;;;9.32;8.30;;;;;;;;;;5039015;28;20050;-81
2021/07/10 08:58:49;;;;;;;11.00;8.00;;;;;;;;;;5040359;28;20490;-79
2021/07/10 09:01:16;;;;;;;10.05;8.70;;;;;;;;;;5040841;28;20050;-80
2021/07/10 09:03:42;;;;;;;11.90;8.50;;;;;;;;;;5039458;28;20120;-82
2021/07/10 09:06:10;;;;;;;9.60;8.57;;;;;;;;;;5039667;28;20045;-76
2021/07/10 09:08:37;;;;;;;19.02;15.65;;;;;;;;;;5039398;28;20053;-78
2021/07/10 09:11:06;;;;;;;24.73;16.10;;;;;;;;;;5038379;28;20045;-81
2021/07/10 09:13:36;;;;;;;80.38;48.60;;;;;;;;;;5034860;28;20076;-79
2021/07/10 09:16:09;;;;;;;11.93;8.83;;;;;;;;;;5024383;28;20046;-77
2021/07/10 09:18:38;;;;;;;9.65;8.65;;;;;;;;;;5017979;28;20049;-77
2021/07/10 09:21:05;;;;;;;9.82;7.82;;;;;;;;;;5017856;28;20100;-77
2021/07/10 09:23:38;;;;;;;10.68;7.90;;;;;;;;;;5016424;28;20110;-78
2021/07/10 09:26:21;;;;;;;9.05;8.15;;;;;;;;;;5015252;28;20410;-77
2021/07/10 09:29:01;;;;;;;7.43;6.63;;;;;;;;;;5016181;28;20108;-78
2021/07/10 09:31:30;;;;;;;8.35;7.40;;;;;;;;;;5023620;28;20041;-80
2021/07/10 09:34:01;;;;;;;10.75;7.55;;;;;;;;;;5026738;28;20046;-78
2021/07/10 09:36:29;;;;;;;10.15;9.15;;;;;;;;;;5015866;28;20046;-77
2021/07/10 09:38:57;;;;;;;11.65;8.48;;;;;;;;;;5017244;28;20487;-77
2021/07/10 09:41:26;;;;;;;9.07;7.28;;;;;;;;;;5017584;28;20593;-80
2021/07/10 09:43:56;;;;;;;9.52;8.18;;;;;;;;;;5017257;28;20050;-78
2021/07/10 09:46:26;;;;;;;7.90;6.97;;;;;;;;;;5014399;28;20064;-77
2021/07/10 09:48:52;;;;;;;8.15;7.00;;;;;;;;;;5014996;28;20081;-76
2021/07/10 09:51:22;;;;;;;7.03;6.32;;;;;;;;;;5014848;28;20533;-78
2021/07/10 09:54:05;;;;;;;8.02;6.35;;;;;;;;;;5018829;28;20068;-74
2021/07/10 09:56:34;;;;;;;7.78;6.53;;;;;;;;;;5027068;28;20104;-78
2021/07/10 09:59:18;;;;;;;8.48;6.45;;;;;;;;;;5043622;28;20049;-79
2021/07/10 10:01:46;;;;;;;7.28;6.25;;;;;;;;;;5029257;28;20109;-81
2021/07/10 10:04:27;;;;;;;6.57;5.53;;;;;;;;;;5023135;28;20526;-79
2021/07/10 10:06:55;;;;;;;7.47;6.20;;;;;;;;;;5018564;28;20048;-79
2021/07/10 10:09:24;;;;;;;8.10;6.57;;;;;;;;;;5019249;28;20050;-79
2021/07/10 10:11:57;;;;;;;6.40;5.80;;;;;;;;;;5028048;28;20080;-80
2021/07/10 10:14:25;;;;;;;7.97;6.07;;;;;;;;;;5038507;28;20077;-78
2021/07/10 10:16:52;;;;;;;6.93;5.93;;;;;;;;;;5038855;28;20041;-78
2021/07/10 10:19:21;;;;;;;7.72;6.40;;;;;;;;;;5040146;28;20108;-79
2021/07/10 10:21:51;;;;;;;6.50;4.93;;;;;;;;;;5040223;28;20049;-82
2021/07/10 10:24:19;;;;;;;6.05;5.13;;;;;;;;;;5039164;28;20096;-78
2021/07/10 10:26:51;;;;;;;6.43;5.60;;;;;;;;;;5038915;28;20099;-78
2021/07/10 10:29:19;;;;;;;6.70;5.85;;;;;;;;;;5039405;28;20046;-79
2021/07/10 10:31:47;;;;;;;7.18;5.90;;;;;;;;;;5039266;28;20060;-78
2021/07/10 10:34:14;;;;;;;6.10;5.13;;;;;;;;;;5039651;28;20073;-78
2021/07/10 10:36:43;;;;;;;7.05;4.75;;;;;;;;;;5038024;28;20041;-78
2021/07/10 10:39:12;;;;;;;5.70;5.00;;;;;;;;;;5039376;28;20490;-79
2021/07/10 10:41:42;;;;;;;6.32;5.55;;;;;;;;;;5038910;28;20118;-78
2021/07/10 10:44:11;;;;;;;6.15;5.30;;;;;;;;;;5038705;28;20092;-78
2021/07/10 10:46:45;;;;;;;7.85;5.88;;;;;;;;;;5038664;28;20049;-78
2021/07/10 10:49:34;;;;;;;7.43;6.13;;;;;;;;;;5038820;28;20499;-79
2021/07/10 10:52:35;;;;;;;8.00;6.53;;;;;;;;;;5038630;28;20529;-78
2021/07/10 10:55:08;;;;;;;7.60;6.60;;;;;;;;;;5038015;28;20115;-79
2021/07/10 10:57:41;;;;;;;7.40;6.53;;;;;;;;;;5038471;28;20045;-78
2021/07/10 11:00:13;;;;;;;7.45;6.72;;;;;;;;;;5035637;28;20050;-78
2021/07/10 11:02:53;;;;;;;8.13;7.32;;;;;;;;;;5019330;28;20046;-78
2021/07/10 11:05:51;;;;;;;8.98;6.60;;;;;;;;;;5017951;28;20050;-78
2021/07/10 11:08:50;;;;;;;7.20;6.50;;;;;;;;;;5019482;28;20088;-79
2021/07/10 11:11:27;;;;;;;8.18;7.05;;;;;;;;;;5023847;28;20524;-78
2021/07/10 11:14:10;;;;;;;7.88;7.13;;;;;;;;;;5039103;28;20114;-79
2021/07/10 11:17:10;;;;;;;9.57;8.68;;;;;;;;;;5038567;28;20095;-79
2021/07/10 11:19:54;;;;;;;8.85;7.65;;;;;;;;;;5038628;28;20053;-79
2021/07/10 11:23:01;;;;;;;7.57;6.75;;;;;;;;;;5038422;28;20487;-79
2021/07/10 11:25:56;;;;;;;8.07;6.57;;;;;;;;;;5037250;28;20061;-79
2021/07/10 11:28:25;;;;;;;7.18;6.47;;;;;;;;;;5037875;28;20049;-82
2021/07/10 11:30:53;;;;;;;7.40;6.50;;;;;;;;;;5037399;28;20056;-79
2021/07/10 11:34:09;;;;;;;6.57;5.93;;;;;;;;;;5043663;28;20053;-79
2021/07/10 11:36:53;;;;;;;6.72;6.03;;;;;;;;;;4970240;29;20536;-79
2021/07/10 11:39:51;;;;;;;7.97;7.20;;;;;;;;;;4969750;29;20070;-78
2021/07/10 11:42:35;;;;;;;7.15;6.20;;;;;;;;;;5030152;28;20053;-79
2021/07/10 11:45:13;;;;;;;8.05;6.03;;;;;;;;;;5040242;28;20050;-80
2021/07/10 11:47:42;;;;;;;6.28;5.68;;;;;;;;;;5039429;28;20332;-78
2021/07/10 11:50:10;;;;;;;6.38;5.78;;;;;;;;;;5038792;28;20049;-80
2021/07/10 11:52:38;;;;;;;7.80;6.07;;;;;;;;;;5038077;28;20092;-78
2021/07/10 11:55:09;;;;;;;6.30;5.57;;;;;;;;;;5034583;28;20045;-78
2021/07/10 11:57:36;;;;;;;;;;;;;;;;;;5033331;28;20080;-77
2021/07/10 12:00:06;;;;;;;7.30;6.20;;;;;;;;;;5032327;28;19943;-78
2021/07/10 12:02:33;;;;;;;6.60;5.40;;;;;;;;;;5032274;28;20081;-78
2021/07/10 12:05:01;;;;;;;5.82;5.20;;;;;;;;;;5032923;28;20051;-79
2021/07/10 12:07:28;;;;;;;7.10;6.07;;;;;;;;;;5032389;28;20050;-76
2021/07/10 12:09:57;;;;;;;6.63;5.97;;;;;;;;;;5032423;28;20477;-76
2021/07/10 12:12:24;;;;;;;5.80;5.20;;;;;;;;;;5019430;28;20049;-77
2021/07/10 12:14:51;;;;;;;5.90;5.30;;;;;;;;;;5012082;28;20096;-78
2021/07/10 12:17:18;;;;;;;5.88;5.03;;;;;;;;;;5012860;28;20085;-78
2021/07/10 12:19:45;;;;;;;6.47;5.22;;;;;;;;;;5013421;28;20085;-78
2021/07/10 12:22:11;;;;;;;6.38;4.65;;;;;;;;;;5012311;28;20092;-78
2021/07/10 12:24:38;;;;;;;5.50;4.90;;;;;;;;;;5011770;28;20085;-79
2021/07/10 12:27:12;;;;;;;6.75;5.00;;;;;;;;;;5012653;28;20108;-79
2021/07/10 12:29:50;;;;;;;5.95;4.95;;;;;;;;;;5012455;28;20046;-79
2021/07/10 12:32:18;;;;;;;6.80;5.10;;;;;;;;;;5013719;28;20092;-79
2021/07/10 12:34:48;;;;;;;4.85;4.15;;;;;;;;;;5012625;28;20139;-77
2021/07/10 12:37:20;;;;;;;;;;;;;;;;;;5012949;28;20062;-78
2021/07/10 12:39:47;;;;;;;6.97;5.03;;;;;;;;;;5012395;28;19971;-77
2021/07/10 12:42:15;;;;;;;5.30;4.55;;;;;;;;;;5012369;28;20081;-79
2021/07/10 12:44:43;;;;;;;6.97;5.50;;;;;;;;;;5011519;28;20081;-78
2021/07/10 12:47:12;;;;;;;5.80;4.85;;;;;;;;;;5012482;28;20088;-80
2021/07/10 12:49:42;;;;;;;5.80;4.78;;;;;;;;;;5013609;28;20052;-79
2021/07/10 12:52:18;;;;;;;5.20;4.70;;;;;;;;;;5016720;28;20065;-79
2021/07/10 12:54:48;;;;;;;5.38;4.68;;;;;;;;;;5019285;28;20046;-78
2021/07/10 12:57:35;;;;;;;4.70;4.20;;;;;;;;;;5020222;28;20057;-78
2021/07/10 13:00:11;;;;;;;5.97;4.35;;;;;;;;;;5018430;28;20074;-78
2021/07/10 13:02:44;;;;;;;6.07;5.05;;;;;;;;;;5018753;28;20077;-78
2021/07/10 13:05:31;;;;;;;5.80;4.95;;;;;;;;;;5018167;28;20104;-79
2021/07/10 13:08:10;;;;;;;6.07;5.10;;;;;;;;;;5020827;28;20070;-79
2021/07/10 13:10:38;;;;;;;7.20;5.05;;;;;;;;;;5021200;28;20046;-79
2021/07/10 13:13:12;;;;;;;5.68;5.00;;;;;;;;;;5022882;28;20046;-79
2021/07/10 13:15:44;;;;;;;6.43;4.85;;;;;;;;;;5021758;28;20045;-79
2021/07/10 13:18:17;;;;;;;9.57;8.68;;;;;;;;;;5022347;28;20045;-79
2021/07/10 13:20:47;;;;;;;7.00;5.70;;;;;;;;;;5022819;28;20100;-79
2021/07/10 13:23:44;;;;;;;;;;;;;;;;;;5024141;28;20049;-79
2021/07/10 13:26:20;;;;;;;5.45;4.57;;;;;;;;;;4981415;28;20225;-79
2021/07/10 13:28:49;;;;;;;5.47;4.85;;;;;;;;;;5016826;28;20046;-79
2021/07/10 13:31:22;;;;;;;5.05;4.47;;;;;;;;;;5023162;28;20054;-79
2021/07/10 13:33:51;;;;;;;5.60;4.90;;;;;;;;;;5022743;28;20050;-79
2021/07/10 13:36:20;;;;;;;6.75;6.10;;;;;;;;;;5022371;28;20046;-78
2021/07/10 13:38:49;;;;;;;6.40;5.30;;;;;;;;;;5020532;28;20057;-77
2021/07/10 13:41:19;;;;;;;5.45;4.20;;;;;;;;;;5020125;28;20107;-78
2021/07/10 13:44:08;;;;;;;4.93;4.20;;;;;;;;;;5023340;28;20427;-78
2021/07/10 13:46:37;;;;;;;5.57;4.20;;;;;;;;;;5021458;28;20077;-78
2021/07/10 13:49:21;;;;;;;5.70;4.18;;;;;;;;;;5023218;28;20057;-79
2021/07/10 13:51:49;;;;;;;6.22;4.35;;;;;;;;;;5020794;28;20561;-78
2021/07/10 13:54:30;;;;;;;4.68;3.90;;;;;;;;;;5020430;28;20446;-78
2021/07/10 13:57:24;;;;;;;4.90;4.30;;;;;;;;;;5017822;28;20046;-79
2021/07/10 13:59:58;;;;;;;5.32;4.78;;;;;;;;;;5020840;28;20047;-78
2021/07/10 14:02:26;;;;;;;4.78;4.32;;;;;;;;;;5042907;28;20084;-78
2021/07/10 14:05:15;;;;;;;6.13;4.60;;;;;;;;;;5041725;28;20469;-79
2021/07/10 14:07:44;;;;;;;4.38;3.97;;;;;;;;;;5039970;28;20202;-78
2021/07/10 14:10:14;;;;;;;4.80;4.28;;;;;;;;;;5040733;28;20556;-79
2021/07/10 14:12:42;;;;;;;6.07;4.40;;;;;;;;;;5025203;28;20096;-79
2021/07/10 14:15:12;;;;;;;5.00;4.50;;;;;;;;;;5021480;28;20046;-79
2021/07/10 14:17:39;;;;;;;5.60;4.90;;;;;;;;;;5020556;28;20054;-79
2021/07/10 14:20:08;;;;;;;5.70;4.20;;;;;;;;;;5021958;28;20571;-79
2021/07/10 14:22:36;;;;;;;4.57;4.07;;;;;;;;;;5019445;28;20069;-79
2021/07/10 14:25:04;;;;;;;4.65;4.10;;;;;;;;;;5016608;28;20526;-78
2021/07/10 14:27:31;;;;;;;5.75;4.63;;;;;;;;;;5018540;28;20507;-79
2021/07/10 14:29:58;;;;;;;4.95;4.40;;;;;;;;;;5017745;28;20073;-79
2021/07/10 14:32:27;;;;;;;4.95;4.47;;;;;;;;;;5017289;28;20133;-78
2021/07/10 14:34:55;;;;;;;6.40;5.80;;;;;;;;;;5016112;28;20057;-78
2021/07/10 14:37:21;;;;;;;6.30;5.70;;;;;;;;;;5039800;23;20050;-79
2021/07/10 14:39:48;;;;;;;5.07;3.80;;;;;;;;;;5020966;28;20073;-79
2021/07/10 14:42:15;;;;;;;5.50;4.40;;;;;;;;;;5020551;28;20042;-79
2021/07/10 14:44:42;;;;;;;5.25;4.25;;;;;;;;;;5020312;28;20046;-79
2021/07/10 14:47:09;;;;;;;5.40;4.40;;;;;;;;;;5021686;28;20081;-79
2021/07/10 14:49:37;;;;;;;5.05;4.10;;;;;;;;;;5021546;28;20049;-79
2021/07/10 14:52:04;;;;;;;5.10;3.85;;;;;;;;;;5020116;28;20458;-80